Time;durP1;ratioP1;P1;durP2;ratioP2;P2;SDS_P1;SDS_P2;PMS_P1;PMS_P2;Temp;Humidity;BMP_temperature;BMP_pressure;BME280_temperature;BME280_humidity;BME280_pressure;Samples;Min_cycle;Max_cycle;Signal;HPM_P1;HPM_P2
2021/05/16 00:01:10;;;;;;;1.40;1.30;;;;;;;9.13;79.85;95743.00;5033653;28;20222;-65
2021/05/16 00:03:37;;;;;;;1.97;1.30;;;;;;;9.24;79.42;95757.75;5032856;28;20175;-65
2021/05/16 00:06:03;;;;;;;2.70;1.30;;;;;;;9.20;79.85;95751.41;5032989;28;20182;-65
2021/05/16 00:08:29;;;;;;;1.40;1.30;;;;;;;9.23;79.49;95756.19;5032832;28;20198;-65
2021/05/16 00:10:54;;;;;;;1.60;1.30;;;;;;;9.17;79.58;95755.31;5033043;28;20218;-65
2021/05/16 00:13:20;;;;;;;1.90;1.67;;;;;;;9.18;79.70;95754.31;5032670;28;20287;-65
2021/05/16 00:15:46;;;;;;;1.47;1.37;;;;;;;9.21;79.66;95755.63;5033592;28;20198;-65
2021/05/16 00:18:11;;;;;;;1.20;1.20;;;;;;;9.24;79.69;95763.00;5033781;28;20186;-65
2021/05/16 00:20:37;;;;;;;1.10;1.10;;;;;;;9.16;79.85;95761.59;5015235;28;20202;-65
2021/05/16 00:23:03;;;;;;;1.30;1.30;;;;;;;9.21;80.00;95763.47;5033619;28;20194;-65
2021/05/16 00:25:31;;;;;;;1.17;1.17;;;;;;;9.23;79.51;95758.00;5014575;28;20667;-64
2021/05/16 00:27:57;;;;;;;1.20;1.20;;;;;;;9.19;80.14;95757.72;5033583;28;20240;-64
2021/05/16 00:30:27;;;;;;;1.20;1.20;;;;;;;9.32;79.73;95752.09;5013569;28;20672;-64
2021/05/16 00:32:55;;;;;;;1.20;1.20;;;;;;;9.29;79.73;95755.22;5032457;28;20183;-65
2021/05/16 00:35:22;;;;;;;1.30;1.20;;;;;;;9.27;79.75;95759.88;5019057;28;20187;-64
2021/05/16 00:37:49;;;;;;;1.30;1.30;;;;;;;9.23;80.18;95763.22;5032391;28;20190;-65
2021/05/16 00:40:15;;;;;;;2.20;1.40;;;;;;;9.32;79.89;95767.78;5033004;28;20196;-65
2021/05/16 00:42:41;;;;;;;2.50;1.07;;;;;;;9.36;79.42;95766.25;5032403;28;20187;-65
2021/05/16 00:45:08;;;;;;;1.30;1.30;;;;;;;9.39;79.72;95762.38;5014356;28;20198;-65
2021/05/16 00:47:36;;;;;;;1.13;1.13;;;;;;;9.49;79.56;95767.72;5032259;28;20498;-65
2021/05/16 00:50:09;;;;;;;1.20;1.20;;;;;;;9.52;79.83;95760.19;5032818;28;20183;-65
2021/05/16 00:52:38;;;;;;;1.50;1.40;;;;;;;9.55;79.80;95753.66;5032157;28;20175;-67
2021/05/16 00:55:06;;;;;;;1.10;1.10;;;;;;;9.64;79.37;95756.66;5032754;28;20197;-65
2021/05/16 00:57:31;;;;;;;1.33;1.30;;;;;;;9.53;79.91;95755.72;5030596;28;20202;-65
2021/05/16 00:59:57;;;;;;;1.10;1.10;;;;;;;9.45;80.16;95753.56;5032417;28;20182;-65
2021/05/16 01:02:22;;;;;;;1.10;1.10;;;;;;;9.54;80.33;95746.84;5031516;28;20719;-65
2021/05/16 01:04:47;;;;;;;1.20;1.20;;;;;;;9.58;80.25;95751.34;5032140;28;20182;-65
2021/05/16 01:07:13;;;;;;;1.20;1.20;;;;;;;9.56;80.22;95747.41;5032119;28;20569;-65
2021/05/16 01:09:39;;;;;;;1.50;1.40;;;;;;;9.47;81.13;95741.81;5032364;28;20516;-65
2021/05/16 01:12:07;;;;;;;1.33;1.33;;;;;;;9.51;80.77;95744.75;5032393;28;20187;-65
2021/05/16 01:14:39;;;;;;;1.50;1.40;;;;;;;9.52;80.43;95743.72;5031446;28;20707;-65
2021/05/16 01:17:05;;;;;;;1.20;1.20;;;;;;;9.53;80.05;95740.81;5014581;28;20285;-65
2021/05/16 01:19:31;;;;;;;1.73;1.20;;;;;;;9.56;80.21;95734.31;5031356;28;20266;-65
2021/05/16 01:21:57;;;;;;;1.23;1.13;;;;;;;9.62;79.84;95735.97;5032004;28;20195;-65
2021/05/16 01:24:25;;;;;;;1.63;1.50;;;;;;;9.69;79.64;95741.00;5013699;28;20191;-65
2021/05/16 01:26:51;;;;;;;1.30;1.30;;;;;;;9.75;79.01;95747.88;5031621;28;20183;-65
2021/05/16 01:29:20;;;;;;;1.50;1.50;;;;;;;9.65;79.26;95739.91;5031263;28;20175;-64
2021/05/16 01:31:46;;;;;;;1.53;1.43;;;;;;;9.63;79.43;95744.59;5031973;28;20194;-65
2021/05/16 01:34:12;;;;;;;2.10;1.30;;;;;;;9.66;79.09;95738.88;5031936;28;20191;-65
2021/05/16 01:36:38;;;;;;;1.27;1.20;;;;;;;9.59;79.61;95741.66;5013071;28;20697;-65
2021/05/16 01:39:07;;;;;;;1.70;1.20;;;;;;;9.75;78.88;95746.03;5031930;28;20209;-65
2021/05/16 01:41:33;;;;;;;1.43;1.40;;;;;;;9.60;79.55;95743.25;5031202;28;20186;-65
2021/05/16 01:43:59;;;;;;;1.47;1.47;;;;;;;9.58;79.76;95750.56;5031528;28;20185;-65
2021/05/16 01:46:25;;;;;;;1.30;1.30;;;;;;;9.70;79.89;95750.41;5012971;28;20662;-65
2021/05/16 01:48:51;;;;;;;2.10;1.87;;;;;;;9.71;80.06;95752.00;5020161;28;20276;-65
2021/05/16 01:51:17;;;;;;;1.53;1.33;;;;;;;9.77;80.20;95743.16;5031067;28;20205;-65
2021/05/16 01:53:45;;;;;;;1.40;1.30;;;;;;;9.63;82.46;95740.16;5031400;28;20253;-65
2021/05/16 01:56:20;;;;;;;1.50;1.40;;;;;;;9.55;84.11;95738.75;5031409;28;20202;-65
2021/05/16 01:58:46;;;;;;;1.47;1.37;;;;;;;9.37;86.27;95733.84;5025605;28;20658;-65
2021/05/16 02:01:12;;;;;;;1.33;1.23;;;;;;;9.47;85.35;95733.19;5031698;28;20233;-65
2021/05/16 02:03:39;;;;;;;2.10;1.53;;;;;;;9.35;86.73;95740.38;5030903;28;20186;-64
2021/05/16 02:06:05;;;;;;;1.50;1.40;;;;;;;9.39;86.70;95746.69;5030759;28;20544;-65
2021/05/16 02:08:30;;;;;;;3.77;1.80;;;;;;;9.18;88.05;95737.81;5012279;28;20186;-65
2021/05/16 02:10:56;;;;;;;3.20;1.63;;;;;;;9.34;87.05;95738.78;5031833;28;20185;-65
2021/05/16 02:13:22;;;;;;;1.30;1.30;;;;;;;9.30;87.10;95732.47;5030575;28;20616;-65
2021/05/16 02:15:47;;;;;;;1.50;1.40;;;;;;;9.26;87.35;95736.59;5031017;28;20205;-65
2021/05/16 02:18:17;;;;;;;1.90;1.40;;;;;;;9.22;88.39;95733.69;5013722;28;20544;-65
2021/05/16 02:20:42;;;;;;;1.53;1.43;;;;;;;9.28;87.99;95742.38;5013356;28;20204;-64
2021/05/16 02:23:08;;;;;;;4.70;1.50;;;;;;;9.25;88.21;95743.63;5013386;28;20631;-65
2021/05/16 02:25:35;;;;;;;1.23;1.10;;;;;;;9.29;88.49;95736.91;5030485;28;20182;-64
2021/05/16 02:28:00;;;;;;;1.30;1.30;;;;;;;9.24;89.06;95734.25;5031331;28;20237;-65
2021/05/16 02:30:25;;;;;;;2.40;1.20;;;;;;;9.30;89.03;95735.09;5030504;28;20705;-66
2021/05/16 02:32:51;;;;;;;1.87;1.40;;;;;;;9.17;91.16;95736.22;5030492;28;20221;-65
2021/05/16 02:35:16;;;;;;;1.30;1.30;;;;;;;9.28;90.59;95739.75;5029979;28;20213;-64
2021/05/16 02:37:42;;;;;;;1.13;1.13;;;;;;;9.18;92.11;95735.22;5030575;28;20187;-65
2021/05/16 02:40:09;;;;;;;1.70;1.60;;;;;;;9.13;92.61;95738.56;5031448;28;20628;-65
2021/05/16 02:42:34;;;;;;;1.17;1.17;;;;;;;9.17;93.55;95739.66;5012564;28;20201;-65
2021/05/16 02:45:00;;;;;;;1.10;1.10;;;;;;;9.10;94.02;95736.41;5013226;28;20277;-65
2021/05/16 02:47:25;;;;;;;1.43;1.13;;;;;;;9.04;93.85;95747.84;5030124;28;20221;-65
2021/05/16 02:49:51;;;;;;;2.53;1.53;;;;;;;9.02;94.49;95743.91;5030617;28;20185;-65
2021/05/16 02:52:16;;;;;;;1.80;1.20;;;;;;;9.11;93.65;95755.50;5012074;28;20194;-64
2021/05/16 02:54:43;;;;;;;1.20;1.20;;;;;;;9.08;93.72;95742.94;5032075;28;20178;-65
2021/05/16 02:57:09;;;;;;;3.43;1.40;;;;;;;9.16;93.54;95745.91;5020156;28;20206;-65
2021/05/16 02:59:35;;;;;;;1.13;1.13;;;;;;;9.10;93.85;95738.22;5034073;28;20201;-65
2021/05/16 03:02:01;;;;;;;1.60;1.50;;;;;;;9.20;93.91;95733.13;5034571;28;20612;-65
2021/05/16 03:04:26;;;;;;;1.60;1.50;;;;;;;9.24;92.97;95731.63;5034193;28;20224;-65
2021/05/16 03:06:52;;;;;;;2.90;1.30;;;;;;;9.29;92.58;95728.28;5016543;28;20182;-65
2021/05/16 03:09:18;;;;;;;1.40;1.30;;;;;;;9.34;92.79;95731.72;5034025;28;20183;-64
2021/05/16 03:11:43;;;;;;;1.40;1.40;;;;;;;9.35;92.15;95724.69;5034461;28;20194;-65
2021/05/16 03:14:09;;;;;;;1.67;1.27;;;;;;;9.46;91.37;95724.56;5016531;28;20194;-65
2021/05/16 03:16:34;;;;;;;1.43;1.30;;;;;;;9.46;90.39;95729.78;5033782;28;20237;-65
2021/05/16 03:18:59;;;;;;;1.43;1.43;;;;;;;9.37;92.08;95720.78;5034504;28;20643;-65
2021/05/16 03:21:25;;;;;;;2.43;1.40;;;;;;;9.41;92.32;95727.13;5016047;28;20635;-65
2021/05/16 03:23:50;;;;;;;1.70;1.60;;;;;;;9.45;91.40;95724.78;5034451;28;20264;-65
2021/05/16 03:26:16;;;;;;;1.53;1.43;;;;;;;9.47;90.72;95725.34;5033182;28;20205;-64
2021/05/16 03:28:42;;;;;;;2.00;1.73;;;;;;;9.39;91.17;95723.94;5034346;28;20179;-65
2021/05/16 03:31:07;;;;;;;1.73;1.60;;;;;;;9.51;91.54;95732.44;5034328;28;20689;-65
2021/05/16 03:33:33;;;;;;;1.57;1.40;;;;;;;9.45;91.47;95719.56;5033367;28;20202;-65
2021/05/16 03:35:58;;;;;;;1.57;1.47;;;;;;;9.49;91.42;95724.06;5034084;28;20531;-65
2021/05/16 03:38:23;;;;;;;2.20;1.83;;;;;;;9.54;90.99;95725.94;5033227;28;20187;-65
2021/05/16 03:40:49;;;;;;;1.77;1.50;;;;;;;9.53;90.95;95717.28;5034192;28;20210;-65
2021/05/16 03:43:14;;;;;;;1.80;1.70;;;;;;;9.63;89.74;95731.53;5034158;28;20170;-65
2021/05/16 03:45:40;;;;;;;1.40;1.40;;;;;;;9.51;91.06;95729.84;5033550;28;20244;-65
2021/05/16 03:48:05;;;;;;;1.73;1.63;;;;;;;9.66;90.37;95728.41;5033753;28;20312;-66
2021/05/16 03:50:31;;;;;;;1.47;1.43;;;;;;;9.64;89.97;95727.88;5033173;28;20189;-65
2021/05/16 03:52:57;;;;;;;2.20;1.60;;;;;;;9.53;90.24;95726.94;5016348;28;20397;-65
2021/05/16 03:55:22;;;;;;;1.50;1.40;;;;;;;9.57;89.69;95721.00;5032726;28;20198;-64
2021/05/16 03:57:51;;;;;;;1.90;1.60;;;;;;;9.59;89.29;95723.34;5033049;28;20235;-65
2021/05/16 04:00:17;;;;;;;1.23;1.23;;;;;;;9.74;88.71;95728.75;5032934;28;20640;-65
2021/05/16 04:02:44;;;;;;;1.40;1.40;;;;;;;9.70;89.00;95734.72;5017249;28;20183;-65
2021/05/16 04:05:10;;;;;;;1.07;1.07;;;;;;;9.85;87.75;95722.59;5016101;28;20324;-65
2021/05/16 04:07:36;;;;;;;1.50;1.40;;;;;;;9.71;88.41;95726.63;5014718;28;20183;-65
2021/05/16 04:10:02;;;;;;;1.20;1.20;;;;;;;9.62;89.61;95733.34;5033608;28;20224;-65
2021/05/16 04:12:28;;;;;;;1.30;1.30;;;;;;;9.67;89.42;95743.06;5032463;28;20182;-65
2021/05/16 04:14:53;;;;;;;1.20;1.20;;;;;;;9.68;89.52;95739.41;5034133;28;20182;-65
2021/05/16 04:17:19;;;;;;;1.30;1.20;;;;;;;9.76;88.70;95736.34;5032913;28;20211;-64
2021/05/16 04:19:45;;;;;;;1.20;1.20;;;;;;;9.72;88.50;95737.88;5033346;28;20189;-66
2021/05/16 04:22:10;;;;;;;1.40;1.30;;;;;;;9.80;88.06;95737.47;5033426;28;20186;-65
2021/05/16 04:24:35;;;;;;;1.20;1.20;;;;;;;9.68;89.64;95742.03;5014714;28;20170;-65
2021/05/16 04:27:01;;;;;;;1.23;1.20;;;;;;;9.71;89.86;95731.84;5033299;28;20183;-65
2021/05/16 04:29:26;;;;;;;1.53;1.30;;;;;;;9.80;90.64;95721.75;5032611;28;20182;-65
2021/05/16 04:31:52;;;;;;;1.30;1.30;;;;;;;9.60;90.92;95728.34;5015686;28;20647;-65
2021/05/16 04:34:17;;;;;;;1.83;1.30;;;;;;;9.60;91.09;95730.19;5031736;28;20186;-65
2021/05/16 04:36:42;;;;;;;1.63;1.20;;;;;;;9.69;89.95;95728.72;5032976;28;20210;-66
2021/05/16 04:39:08;;;;;;;1.03;1.03;;;;;;;9.54;91.30;95720.69;5015158;28;20190;-66
2021/05/16 04:41:33;;;;;;;1.20;1.20;;;;;;;9.66;90.87;95725.78;5014264;28;20187;-65
2021/05/16 04:44:00;;;;;;;0.90;0.90;;;;;;;9.57;91.92;95728.84;5032871;28;20520;-65
2021/05/16 04:46:26;;;;;;;1.20;1.20;;;;;;;9.64;90.72;95727.88;5017985;28;20294;-65
2021/05/16 04:48:51;;;;;;;1.17;1.00;;;;;;;9.66;90.44;95729.19;5032732;28;20278;-65
2021/05/16 04:51:16;;;;;;;1.27;1.20;;;;;;;9.68;89.44;95724.50;5032128;28;20194;-64
2021/05/16 04:53:42;;;;;;;1.10;1.10;;;;;;;9.57;90.19;95726.25;5032131;28;20183;-65
2021/05/16 04:56:07;;;;;;;1.27;1.17;;;;;;;9.65;89.50;95732.84;5014151;28;20217;-65
2021/05/16 04:58:32;;;;;;;1.17;1.17;;;;;;;9.63;89.69;95721.06;5031875;28;20182;-65
2021/05/16 05:00:58;;;;;;;1.10;1.10;;;;;;;9.58;89.88;95727.03;5032854;28;20663;-65
2021/05/16 05:03:24;;;;;;;1.00;1.00;;;;;;;9.67;89.52;95725.56;5031122;28;20636;-65
2021/05/16 05:05:54;;;;;;;3.07;1.20;;;;;;;9.76;89.70;95725.88;5031701;28;20718;-65
2021/05/16 05:08:20;;;;;;;1.10;1.10;;;;;;;9.78;89.45;95732.47;5031644;28;20187;-65
2021/05/16 05:10:46;;;;;;;1.00;1.00;;;;;;;9.85;89.11;95729.66;5021657;28;20627;-65
2021/05/16 05:13:11;;;;;;;1.10;1.10;;;;;;;10.01;88.07;95731.38;5032092;28;20189;-64
2021/05/16 05:15:37;;;;;;;1.13;1.13;;;;;;;10.06;88.17;95738.47;5031210;28;20428;-63
2021/05/16 05:18:02;;;;;;;1.17;1.17;;;;;;;10.13;88.19;95742.47;5031880;28;20179;-64
2021/05/16 05:20:28;;;;;;;1.30;1.20;;;;;;;10.18;87.76;95728.66;5031424;28;20182;-64
2021/05/16 05:22:53;;;;;;;1.20;1.20;;;;;;;10.20;86.60;95735.22;5031956;28;20214;-65
2021/05/16 05:25:19;;;;;;;1.13;1.13;;;;;;;10.18;86.67;95741.75;5013631;28;20274;-64
2021/05/16 05:27:44;;;;;;;1.30;1.30;;;;;;;10.27;85.71;95745.47;5032007;28;20543;-65
2021/05/16 05:30:11;;;;;;;1.20;1.20;;;;;;;10.28;86.48;95747.84;5032248;28;20256;-65
2021/05/16 05:32:36;;;;;;;1.20;1.20;;;;;;;10.25;86.04;95744.97;5031403;28;20190;-65
2021/05/16 05:35:03;;;;;;;1.00;1.00;;;;;;;10.34;85.94;95744.25;5031392;28;20179;-65
2021/05/16 05:37:28;;;;;;;1.00;1.00;;;;;;;10.44;85.55;95748.75;5031000;28;20209;-64
2021/05/16 05:39:54;;;;;;;1.20;1.20;;;;;;;10.43;86.08;95753.22;5031694;28;20636;-65
2021/05/16 05:42:20;;;;;;;1.20;1.20;;;;;;;10.30;87.97;95751.03;5031373;28;20187;-64
2021/05/16 05:44:46;;;;;;;1.40;1.20;;;;;;;10.09;89.74;95746.59;5014066;28;20178;-65
2021/05/16 05:47:11;;;;;;;1.20;1.20;;;;;;;10.20;89.17;95750.13;5031990;28;20189;-65
2021/05/16 05:49:38;;;;;;;1.33;1.33;;;;;;;10.23;88.87;95744.41;5030686;28;20373;-65
2021/05/16 05:52:04;;;;;;;1.17;1.17;;;;;;;10.23;89.01;95737.34;5030913;28;20192;-64
2021/05/16 05:54:29;;;;;;;1.30;1.20;;;;;;;10.26;88.26;95734.22;5030663;28;20187;-64
2021/05/16 05:56:54;;;;;;;1.17;1.10;;;;;;;10.30;88.01;95747.63;5013732;28;20272;-64
2021/05/16 05:59:20;;;;;;;1.27;1.17;;;;;;;10.16;89.02;95751.66;5031152;28;20682;-65
2021/05/16 06:01:45;;;;;;;1.23;1.20;;;;;;;10.26;88.85;95747.31;5030969;28;20305;-64
2021/05/16 06:04:11;;;;;;;1.40;1.30;;;;;;;10.24;87.77;95748.63;5031750;28;20199;-64
2021/05/16 06:06:37;;;;;;;1.10;1.10;;;;;;;10.39;87.96;95760.00;5029894;28;20194;-64
2021/05/16 06:09:04;;;;;;;1.67;1.20;;;;;;;10.49;87.68;95761.09;5031483;28;20236;-64
2021/05/16 06:11:29;;;;;;;1.27;1.17;;;;;;;10.47;86.90;95755.34;5030118;28;20190;-64
2021/05/16 06:13:55;;;;;;;1.20;1.20;;;;;;;10.51;87.10;95751.97;5031398;28;20183;-64
2021/05/16 06:16:20;;;;;;;1.20;1.20;;;;;;;10.56;86.94;95753.81;5030807;28;20209;-64
2021/05/16 06:18:45;;;;;;;1.10;1.10;;;;;;;10.65;85.96;95760.97;5030737;28;20232;-64
2021/05/16 06:21:11;;;;;;;1.10;1.10;;;;;;;10.77;85.34;95758.16;5031212;28;20182;-64
2021/05/16 06:23:47;;;;;;;1.73;1.10;;;;;;;10.78;86.02;95757.13;5030720;28;20195;-65
2021/05/16 06:26:13;;;;;;;1.00;1.00;;;;;;;10.71;85.48;95762.59;5013910;28;20324;-65
2021/05/16 06:28:38;;;;;;;1.40;1.30;;;;;;;10.78;85.27;95762.38;5029770;28;20758;-64
2021/05/16 06:31:04;;;;;;;1.40;1.30;;;;;;;10.87;85.27;95754.84;5031015;28;20195;-65
2021/05/16 06:33:29;;;;;;;1.23;1.23;;;;;;;11.01;83.67;95750.72;5030291;28;20214;-66
2021/05/16 06:35:54;;;;;;;1.17;1.17;;;;;;;11.01;83.98;95758.56;5030895;28;20210;-66
2021/05/16 06:38:20;;;;;;;1.10;1.10;;;;;;;11.23;82.44;95749.50;5030528;28;20182;-66
2021/05/16 06:40:45;;;;;;;1.13;1.13;;;;;;;11.29;82.78;95758.19;5030233;28;20187;-66
2021/05/16 06:43:13;;;;;;;1.00;1.00;;;;;;;11.34;82.29;95752.97;5030808;28;20234;-66
2021/05/16 06:45:38;;;;;;;1.30;1.30;;;;;;;11.51;82.06;95748.31;5030316;28;20725;-67
2021/05/16 06:48:04;;;;;;;1.10;1.10;;;;;;;11.68;80.81;95754.13;5031178;28;20194;-67
2021/05/16 06:50:30;;;;;;;1.30;1.30;;;;;;;11.72;80.60;95756.22;5030264;28;20313;-66
2021/05/16 06:52:55;;;;;;;1.40;1.30;;;;;;;11.76;79.70;95754.72;5013471;28;20226;-67
2021/05/16 06:55:20;;;;;;;1.30;1.30;;;;;;;11.78;78.52;95757.84;5029729;28;20187;-66
2021/05/16 06:57:46;;;;;;;1.83;1.27;;;;;;;11.80;78.78;95748.69;5030007;28;21947;-65
2021/05/16 07:00:12;;;;;;;1.20;1.13;;;;;;;11.89;78.28;95757.63;5013241;28;20196;-67
2021/05/16 07:02:37;;;;;;;1.17;1.10;;;;;;;12.18;77.17;95754.50;5030062;28;20644;-66
2021/05/16 07:05:04;;;;;;;1.80;1.17;;;;;;;12.75;76.46;95760.28;5013010;28;20187;-66
2021/05/16 07:07:29;;;;;;;1.60;1.07;;;;;;;13.03;75.12;95769.44;5013752;28;20182;-65
2021/05/16 07:09:54;;;;;;;0.90;0.90;;;;;;;13.10;73.41;95762.06;5030450;28;20181;-65
2021/05/16 07:12:20;;;;;;;1.07;1.00;;;;;;;13.16;71.25;95765.50;5030584;28;20189;-63
2021/05/16 07:14:45;;;;;;;0.70;0.70;;;;;;;13.12;69.69;95756.56;5012381;28;20178;-64
2021/05/16 07:17:11;;;;;;;0.83;0.83;;;;;;;12.97;71.20;95756.56;5030727;28;20286;-64
2021/05/16 07:19:36;;;;;;;1.07;0.97;;;;;;;12.98;69.56;95752.91;5030023;28;20205;-64
2021/05/16 07:22:01;;;;;;;1.03;0.93;;;;;;;13.16;69.65;95760.22;5030788;28;20175;-65
2021/05/16 07:24:27;;;;;;;1.57;1.00;;;;;;;13.27;68.49;95757.28;5029936;28;20201;-65
2021/05/16 07:26:52;;;;;;;1.43;1.20;;;;;;;13.22;68.32;95759.16;5030028;28;20687;-65
2021/05/16 07:29:18;;;;;;;1.43;1.27;;;;;;;13.13;68.38;95758.13;5030522;28;20225;-70
2021/05/16 07:31:43;;;;;;;1.00;1.00;;;;;;;13.10;69.53;95759.41;5030208;28;20289;-64
2021/05/16 07:34:09;;;;;;;0.90;0.90;;;;;;;13.10;69.22;95758.63;5010537;28;20189;-65
2021/05/16 07:36:34;;;;;;;1.03;0.93;;;;;;;13.03;69.07;95755.50;5012319;28;20272;-65
2021/05/16 07:39:00;;;;;;;0.90;0.90;;;;;;;13.11;69.37;95758.38;5029855;28;20195;-66
2021/05/16 07:41:26;;;;;;;1.60;1.20;;;;;;;13.16;69.30;95755.75;5030973;28;20183;-66
2021/05/16 07:43:51;;;;;;;1.03;0.90;;;;;;;13.39;68.26;95754.38;5033712;28;20186;-65
2021/05/16 07:46:16;;;;;;;0.90;0.90;;;;;;;13.42;67.37;95756.47;5034141;28;20674;-66
2021/05/16 07:48:42;;;;;;;0.80;0.80;;;;;;;13.55;67.09;95747.19;5033494;28;20214;-65
2021/05/16 07:51:07;;;;;;;1.97;1.00;;;;;;;13.68;67.44;95749.25;5029489;28;20190;-64
2021/05/16 07:53:33;;;;;;;0.87;0.87;;;;;;;13.55;65.85;95747.97;5016038;28;20639;-64
2021/05/16 07:55:59;;;;;;;0.90;0.90;;;;;;;13.31;66.54;95755.72;5033208;28;20280;-64
2021/05/16 07:58:24;;;;;;;1.13;1.03;;;;;;;13.55;66.50;95760.34;5032677;28;20651;-65
2021/05/16 08:00:50;;;;;;;2.23;0.90;;;;;;;14.08;65.32;95749.00;5033397;28;20254;-64
2021/05/16 08:03:15;;;;;;;1.33;0.80;;;;;;;14.71;63.80;95751.69;5033551;28;20187;-64
2021/05/16 08:05:41;;;;;;;0.80;0.80;;;;;;;14.95;61.56;95747.25;5032162;28;20257;-65
2021/05/16 08:08:06;;;;;;;0.90;0.90;;;;;;;15.08;59.65;95745.81;5021552;28;20189;-65
2021/05/16 08:10:32;;;;;;;0.87;0.80;;;;;;;14.76;59.96;95741.13;5032619;28;20540;-65
2021/05/16 08:12:57;;;;;;;2.47;1.00;;;;;;;14.92;60.39;95744.41;5033692;28;20279;-66
2021/05/16 08:15:25;;;;;;;2.33;0.87;;;;;;;14.97;61.96;95747.78;5032655;28;20604;-65
2021/05/16 08:17:51;;;;;;;1.33;0.80;;;;;;;14.82;64.02;95755.81;5033176;28;20198;-65
2021/05/16 08:20:17;;;;;;;1.63;1.00;;;;;;;14.04;70.00;95760.38;5033322;28;20270;-65
2021/05/16 08:22:42;;;;;;;1.80;1.37;;;;;;;13.52;72.39;95768.81;5033021;28;20265;-65
2021/05/16 08:25:10;;;;;;;1.03;1.00;;;;;;;12.97;75.28;95759.22;5029276;28;20197;-65
2021/05/16 08:27:36;;;;;;;1.80;1.10;;;;;;;12.73;77.96;95746.63;5031460;28;20187;-65
2021/05/16 08:30:04;;;;;;;1.23;1.13;;;;;;;12.58;79.53;95741.38;5032901;28;20256;-65
2021/05/16 08:32:29;;;;;;;1.07;1.03;;;;;;;12.85;78.23;95738.44;5032716;28;20186;-64
2021/05/16 08:34:55;;;;;;;1.70;1.00;;;;;;;12.82;78.96;95750.28;5033096;28;20185;-65
2021/05/16 08:37:20;;;;;;;1.20;1.10;;;;;;;12.82;78.15;95746.84;5032668;28;20209;-66
2021/05/16 08:39:46;;;;;;;1.13;1.00;;;;;;;12.98;79.71;95747.63;5031875;28;20761;-65
2021/05/16 08:42:11;;;;;;;1.60;1.50;;;;;;;13.19;80.96;95749.97;5032735;28;20186;-65
2021/05/16 08:44:36;;;;;;;1.30;1.20;;;;;;;13.31;78.92;95749.66;5032230;28;20174;-66
2021/05/16 08:47:03;;;;;;;3.03;1.13;;;;;;;13.08;76.83;95740.50;5033016;28;20189;-66
2021/05/16 08:49:29;;;;;;;1.40;1.40;;;;;;;13.19;77.88;95742.06;5032017;28;20635;-66
2021/05/16 08:51:55;;;;;;;1.60;1.50;;;;;;;13.20;74.27;95734.97;5014330;28;20190;-66
2021/05/16 08:54:22;;;;;;;1.37;1.10;;;;;;;13.19;76.86;95738.66;5032130;28;20190;-66
2021/05/16 08:56:50;;;;;;;1.10;1.00;;;;;;;13.17;74.98;95740.75;5032744;28;20205;-66
2021/05/16 08:59:16;;;;;;;1.00;1.00;;;;;;;13.24;71.65;95736.00;5032473;28;20531;-66
2021/05/16 09:01:47;;;;;;;1.57;1.20;;;;;;;13.29;71.02;95730.72;5013878;28;20511;-65
2021/05/16 09:04:20;;;;;;;1.10;1.10;;;;;;;13.31;69.25;95731.25;5025372;28;20542;-65
2021/05/16 09:06:45;;;;;;;1.47;1.20;;;;;;;13.33;69.98;95727.28;5030952;28;20734;-65
2021/05/16 09:09:44;;;;;;;0.90;0.90;;;;;;;13.77;69.65;95729.16;5032589;28;20262;-67
2021/05/16 09:12:13;;;;;;;2.77;1.20;;;;;;;13.99;68.25;95728.75;4978533;28;20280;-66
2021/05/16 09:14:40;;;;;;;1.93;1.20;;;;;;;14.03;65.64;95725.34;5031536;28;20178;-66
2021/05/16 09:17:28;;;;;;;1.10;1.00;;;;;;;14.04;66.85;95724.25;5032341;28;20209;-65
2021/05/16 09:19:59;;;;;;;1.07;1.07;;;;;;;14.27;65.19;95720.13;5032264;28;20636;-66
2021/05/16 09:22:41;;;;;;;0.80;0.80;;;;;;;14.49;63.76;95717.88;5031860;28;20186;-64
2021/05/16 09:25:17;;;;;;;3.20;1.03;;;;;;;14.83;63.81;95720.47;5032108;28;20171;-65
2021/05/16 09:27:53;;;;;;;1.70;0.97;;;;;;;14.96;60.64;95714.53;5031352;28;20214;-66
2021/05/16 09:30:19;;;;;;;1.50;1.17;;;;;;;14.71;60.52;95725.31;5031489;28;20189;-66
2021/05/16 09:32:49;;;;;;;3.60;1.30;;;;;;;14.91;60.84;95722.50;5031041;28;20828;-66
2021/05/16 09:35:16;;;;;;;2.37;1.00;;;;;;;15.32;60.37;95722.81;5014094;28;20178;-66
2021/05/16 09:38:02;;;;;;;1.23;1.00;;;;;;;15.56;58.48;95717.53;5031086;28;20723;-64
2021/05/16 09:40:30;;;;;;;0.97;0.80;;;;;;;15.73;55.88;95711.78;5016316;28;20170;-66
2021/05/16 09:43:10;;;;;;;1.53;0.83;;;;;;;15.89;54.70;95710.50;5013923;28;20661;-66
2021/05/16 09:45:55;;;;;;;1.87;0.90;;;;;;;16.28;53.89;95714.66;5017973;28;20654;-65
2021/05/16 09:48:32;;;;;;;3.30;1.07;;;;;;;16.26;54.38;95709.69;5016826;28;20175;-65
2021/05/16 09:51:04;;;;;;;2.53;1.00;;;;;;;16.31;52.60;95706.97;5031351;28;20178;-65
2021/05/16 09:53:30;;;;;;;0.80;0.80;;;;;;;16.35;53.14;95704.53;5030455;28;20643;-65
2021/05/16 09:56:32;;;;;;;2.08;0.82;;;;;;;16.28;52.55;95704.09;5031544;28;20341;-66
2021/05/16 09:59:00;;;;;;;1.23;0.88;;;;;;;16.31;52.06;95685.03;5031509;28;20181;-66
2021/05/16 10:01:27;;;;;;;1.05;0.70;;;;;;;16.28;52.19;95690.88;5031179;28;20325;-65
2021/05/16 10:03:54;;;;;;;2.42;0.90;;;;;;;16.43;51.58;95688.78;5031447;28;20650;-65
2021/05/16 10:06:21;;;;;;;1.33;0.80;;;;;;;16.69;50.76;95698.97;5030830;28;20190;-64
2021/05/16 10:08:48;;;;;;;6.78;3.20;;;;;;;16.39;48.81;95690.41;5020365;28;20187;-66
2021/05/16 10:11:18;;;;;;;2.55;1.23;;;;;;;16.41;49.57;95688.28;5013941;28;20551;-65
2021/05/16 10:13:52;;;;;;;1.10;0.98;;;;;;;16.63;48.63;95682.38;5012892;28;20778;-65
2021/05/16 10:16:19;;;;;;;2.95;0.88;;;;;;;16.63;48.76;95685.03;5024927;28;20573;-66
2021/05/16 10:18:46;;;;;;;0.85;0.70;;;;;;;16.28;48.09;95678.44;5030580;28;20197;-65
2021/05/16 10:21:12;;;;;;;1.17;1.05;;;;;;;16.07;48.16;95669.25;5031066;28;20662;-65
2021/05/16 10:23:38;;;;;;;1.35;0.63;;;;;;;16.12;48.11;95669.97;5027046;28;20179;-65
2021/05/16 10:26:24;;;;;;;8.25;2.92;;;;;;;16.40;48.32;95665.56;5013116;28;20198;-65
2021/05/16 10:29:06;;;;;;;10.10;3.17;;;;;;;16.57;47.46;95660.50;5030125;28;20729;-65
2021/05/16 10:31:47;;;;;;;7.00;2.38;;;;;;;16.83;46.63;95654.78;5029364;28;20191;-65
2021/05/16 10:34:27;;;;;;;5.50;1.67;;;;;;;17.04;46.44;95654.09;5030711;28;20253;-66
2021/05/16 10:36:56;;;;;;;2.70;0.77;;;;;;;17.16;44.79;95655.47;5012751;28;20220;-64
2021/05/16 10:39:43;;;;;;;1.63;1.15;;;;;;;17.15;44.92;95651.25;5030265;28;20293;-66
2021/05/16 10:42:15;;;;;;;1.13;0.57;;;;;;;17.41;45.36;95646.97;5018006;28;20182;-66
2021/05/16 10:45:08;;;;;;;1.05;0.70;;;;;;;17.53;45.22;95646.47;5030344;28;20191;-66
2021/05/16 10:47:43;;;;;;;1.75;0.77;;;;;;;17.69;45.58;95648.53;5027976;28;20209;-65
2021/05/16 10:50:19;;;;;;;0.43;0.43;;;;;;;17.57;45.29;95636.84;5030300;28;20606;-66
2021/05/16 10:53:06;;;;;;;2.42;0.95;;;;;;;17.36;45.14;95641.78;5029738;28;20262;-66
2021/05/16 10:55:31;;;;;;;2.15;0.57;;;;;;;17.19;45.49;95647.69;5025671;28;20182;-65
2021/05/16 10:57:58;;;;;;;1.15;0.60;;;;;;;17.04;45.65;95632.91;5030252;28;20243;-66
2021/05/16 11:00:39;;;;;;;1.50;0.90;;;;;;;17.05;44.86;95623.13;5030605;28;20222;-65
2021/05/16 11:03:06;;;;;;;1.77;0.70;;;;;;;17.05;45.81;95631.06;5027270;28;20194;-66
2021/05/16 11:05:40;;;;;;;2.20;0.68;;;;;;;17.04;44.75;95624.97;5029561;28;20213;-64
2021/05/16 11:08:07;;;;;;;1.65;0.80;;;;;;;16.88;45.54;95623.72;5030220;28;20265;-66
2021/05/16 11:10:32;;;;;;;0.57;0.57;;;;;;;17.09;45.86;95613.50;5029881;28;20193;-65
2021/05/16 11:13:14;;;;;;;0.98;0.75;;;;;;;16.95;44.69;95615.34;5030604;28;20175;-65
2021/05/16 11:15:51;;;;;;;0.90;0.55;;;;;;;16.79;44.48;95600.84;5013710;28;20667;-65
2021/05/16 11:18:19;;;;;;;1.27;0.75;;;;;;;16.79;44.41;95595.56;5034388;28;20186;-65
2021/05/16 11:20:52;;;;;;;2.28;0.93;;;;;;;16.88;44.24;95601.75;5033795;28;20202;-66
2021/05/16 11:23:25;;;;;;;0.98;0.68;;;;;;;16.92;44.13;95586.84;5034159;28;20201;-66
2021/05/16 11:26:10;;;;;;;0.77;0.60;;;;;;;16.98;43.91;95577.72;5033539;28;20183;-65
2021/05/16 11:28:45;;;;;;;0.70;0.70;;;;;;;17.22;44.34;95577.47;5033113;28;20631;-66
2021/05/16 11:31:19;;;;;;;1.17;0.68;;;;;;;17.14;44.08;95573.66;5016855;28;20699;-66
2021/05/16 11:33:47;;;;;;;0.65;0.65;;;;;;;17.21;45.02;95567.97;5033434;28;20536;-66
2021/05/16 11:36:15;;;;;;;1.10;0.63;;;;;;;17.10;45.48;95563.97;5034258;28;20682;-66
2021/05/16 11:38:46;;;;;;;1.15;0.70;;;;;;;17.26;43.67;95566.00;5034088;28;20526;-64